Time;durP1;ratioP1;P1;durP2;ratioP2;P2;SDS_P1;SDS_P2;PMS_P1;PMS_P2;Temp;Humidity;BMP_temperature;BMP_pressure;BME280_temperature;BME280_humidity;BME280_pressure;Samples;Min_cycle;Max_cycle;Signal;HPM_P1;HPM_P2
2022/05/29 00:00:54;;;;;;;4.28;0.98;;;;;;;10.21;54.49;101552.66;5056297;28;20480;-44
2022/05/29 00:03:20;;;;;;;1.27;0.60;;;;;;;10.19;54.55;101553.84;5074471;28;20044;-43
2022/05/29 00:05:47;;;;;;;2.08;0.82;;;;;;;9.99;54.90;101532.66;5074736;28;20025;-45
2022/05/29 00:08:20;;;;;;;4.03;0.80;;;;;;;10.06;55.30;101543.56;5057227;28;20099;-46
2022/05/29 00:10:45;;;;;;;4.25;0.90;;;;;;;9.97;54.79;101539.19;5074751;28;20033;-45
2022/05/29 00:13:11;;;;;;;2.90;0.63;;;;;;;9.86;54.79;101537.63;5074949;28;20031;-43
2022/05/29 00:15:38;;;;;;;1.65;0.65;;;;;;;9.80;55.25;101527.56;5074657;28;20048;-43
2022/05/29 00:18:06;;;;;;;2.13;0.90;;;;;;;9.80;55.31;101532.91;5074109;28;20031;-43
2022/05/29 00:20:33;;;;;;;4.00;1.20;;;;;;;9.86;55.52;101529.56;5074757;28;20405;-42
2022/05/29 00:22:59;;;;;;;2.63;0.88;;;;;;;9.74;56.41;101512.13;5060790;28;20060;-42
2022/05/29 00:25:25;;;;;;;1.70;0.85;;;;;;;9.84;55.97;101526.22;5094534;28;20028;-43
2022/05/29 00:27:50;;;;;;;2.90;0.85;;;;;;;9.87;55.10;101523.22;5076224;28;20035;-43
2022/05/29 00:30:16;;;;;;;3.20;1.00;;;;;;;9.71;55.84;101524.00;5094307;28;20061;-43
2022/05/29 00:32:42;;;;;;;3.65;1.08;;;;;;;9.68;55.82;101527.00;5094406;28;20028;-42
2022/05/29 00:35:09;;;;;;;3.35;0.63;;;;;;;9.58;56.52;101512.88;5094405;28;20035;-45
2022/05/29 00:37:37;;;;;;;3.03;0.80;;;;;;;9.61;56.24;101523.28;5076175;28;20537;-43
2022/05/29 00:40:17;;;;;;;3.63;0.90;;;;;;;9.63;55.83;101532.84;5094322;28;20055;-44
2022/05/29 00:42:43;;;;;;;3.55;0.98;;;;;;;9.59;55.71;101530.66;5076028;28;20363;-44
2022/05/29 00:45:18;;;;;;;3.55;0.73;;;;;;;9.55;55.58;101526.63;5075984;28;20040;-42
2022/05/29 00:47:43;;;;;;;1.33;0.73;;;;;;;9.41;55.87;101522.69;5093906;28;20039;-44
2022/05/29 00:50:10;;;;;;;5.32;1.05;;;;;;;9.39;56.02;101528.22;5093842;28;20038;-42
2022/05/29 00:52:36;;;;;;;3.10;0.95;;;;;;;9.35;55.81;101540.25;5093595;28;20024;-42
2022/05/29 00:55:13;;;;;;;4.65;1.00;;;;;;;9.26;56.81;101535.84;5094239;28;20020;-43
2022/05/29 00:57:46;;;;;;;2.63;0.77;;;;;;;9.09;57.05;101534.91;5093967;28;20020;-42
2022/05/29 01:00:26;;;;;;;4.00;0.98;;;;;;;9.06;57.04;101533.41;5094158;28;20115;-41
2022/05/29 01:02:55;;;;;;;2.53;0.68;;;;;;;9.00;57.36;101533.16;5075572;28;20090;-42
2022/05/29 01:05:24;;;;;;;4.43;0.90;;;;;;;8.93;57.93;101534.78;5075280;28;20020;-43
2022/05/29 01:07:57;;;;;;;1.95;0.98;;;;;;;8.80;57.77;101524.47;5093502;28;20135;-50
2022/05/29 01:10:35;;;;;;;2.90;1.10;;;;;;;8.77;58.63;101524.81;5094038;28;20040;-43
2022/05/29 01:13:28;;;;;;;4.18;1.25;;;;;;;8.52;59.06;101503.16;5076023;28;20137;-45
2022/05/29 01:16:08;;;;;;;3.13;1.10;;;;;;;8.58;59.03;101521.31;5079076;28;20032;-43
2022/05/29 01:18:56;;;;;;;1.90;0.90;;;;;;;8.53;58.83;101513.72;5093822;28;20028;-44
2022/05/29 01:21:47;;;;;;;4.28;1.20;;;;;;;8.46;59.82;101517.19;5078823;28;20028;-42
2022/05/29 01:24:41;;;;;;;2.28;1.00;;;;;;;8.41;59.62;101512.25;5075380;28;20059;-42
2022/05/29 01:27:47;;;;;;;2.25;1.10;;;;;;;8.41;59.99;101512.25;5078589;28;20039;-43
2022/05/29 01:30:17;;;;;;;2.17;1.00;;;;;;;8.37;59.85;101507.34;5067637;28;20094;-44
2022/05/29 01:33:20;;;;;;;1.77;1.00;;;;;;;8.31;60.34;101504.28;5075743;28;20035;-42
2022/05/29 01:38:41;;;;;;;4.97;1.58;;;;;;;8.17;60.62;101494.13;5093775;28;20063;-43
2022/05/29 01:41:13;;;;;;;4.90;1.30;;;;;;;8.21;60.49;101508.03;5093887;28;20404;-43
2022/05/29 01:43:49;;;;;;;5.35;1.70;;;;;;;8.18;61.47;101509.19;5093694;28;20025;-45
2022/05/29 01:46:22;;;;;;;4.45;1.65;;;;;;;8.06;60.83;101492.53;5093368;28;20114;-43
2022/05/29 01:48:59;;;;;;;1.92;1.25;;;;;;;8.20;60.25;101503.69;5075752;28;20084;-42
2022/05/29 01:51:34;;;;;;;3.13;2.08;;;;;;;8.15;60.97;101501.47;5098283;28;20032;-42
2022/05/29 01:54:09;;;;;;;1.92;1.48;;;;;;;8.17;61.19;101504.81;5098526;28;20027;-43
2022/05/29 01:56:41;;;;;;;2.97;1.27;;;;;;;8.15;60.78;101498.78;5098395;28;20035;-43
2022/05/29 01:59:14;;;;;;;3.08;1.38;;;;;;;8.18;60.25;101509.19;5098109;28;20111;-42
2022/05/29 02:01:47;;;;;;;3.17;1.42;;;;;;;8.13;61.78;101512.34;5099115;28;20036;-44
2022/05/29 02:04:17;;;;;;;2.65;1.45;;;;;;;7.98;61.35;101484.41;5101289;28;20421;-43
2022/05/29 02:09:40;;;;;;;2.35;1.20;;;;;;;8.09;61.27;101502.06;5084619;28;20039;-45
2022/05/29 02:12:10;;;;;;;3.75;1.10;;;;;;;8.08;61.01;101500.41;5098418;28;20063;-49
2022/05/29 02:14:41;;;;;;;4.30;0.95;;;;;;;8.04;61.37;101499.00;5080006;28;20024;-42
2022/05/29 02:17:14;;;;;;;1.98;0.98;;;;;;;7.89;60.94;101469.25;5098163;28;20028;-43
2022/05/29 02:19:48;;;;;;;2.97;1.35;;;;;;;7.97;61.39;101482.75;5064121;28;20360;-43
2022/05/29 02:22:23;;;;;;;2.80;1.00;;;;;;;7.92;61.21;101475.16;5098951;28;20028;-43
2022/05/29 02:24:50;;;;;;;;;;;;;;;7.91;62.91;101488.66;5098443;28;20105;-43
2022/05/29 02:27:44;;;;;;;1.77;1.08;;;;;;;7.93;61.76;101487.56;5080957;28;20374;-42
2022/05/29 02:30:10;;;;;;;1.63;0.82;;;;;;;7.97;61.85;101477.38;5082772;28;20036;-42
2022/05/29 02:32:49;;;;;;;6.97;1.30;;;;;;;7.85;62.18;101449.16;5096414;28;20024;-42
2022/05/29 02:35:42;;;;;;;2.10;1.00;;;;;;;8.14;62.08;101478.38;5078105;28;20024;-42
2022/05/29 02:38:17;;;;;;;5.85;1.08;;;;;;;8.14;61.79;101463.16;5067374;28;20024;-43
2022/05/29 02:41:08;;;;;;;5.50;0.98;;;;;;;8.26;61.46;101471.78;5095863;28;20038;-43
2022/05/29 02:43:48;;;;;;;9.88;0.98;;;;;;;8.27;61.24;101467.31;5064162;28;20527;-42
2022/05/29 02:46:44;;;;;;;1.80;1.30;;;;;;;8.24;61.23;101459.56;5077136;28;20067;-43
2022/05/29 02:49:34;;;;;;;1.60;0.90;;;;;;;8.29;61.09;101460.78;5081468;28;20040;-43
2022/05/29 02:52:06;;;;;;;2.70;0.93;;;;;;;8.15;60.92;101445.28;5063437;28;20552;-43
2022/05/29 02:54:32;;;;;;;4.82;1.00;;;;;;;8.19;60.40;101461.84;5060764;28;20020;-45
2022/05/29 02:57:00;;;;;;;4.07;0.82;;;;;;;8.00;60.55;101442.28;5094969;28;20028;-45
2022/05/29 02:59:31;;;;;;;3.55;0.98;;;;;;;8.05;61.36;101458.72;5076700;28;20048;-43
2022/05/29 03:02:11;;;;;;;2.30;1.13;;;;;;;7.83;61.68;101435.13;5094583;28;20032;-44
2022/05/29 03:04:49;;;;;;;6.22;1.20;;;;;;;7.83;61.63;101454.66;5095396;28;20032;-42
2022/05/29 03:07:39;;;;;;;3.70;1.20;;;;;;;7.78;61.96;101451.59;5076635;28;20028;-43
2022/05/29 03:10:19;;;;;;;3.05;1.10;;;;;;;7.57;61.90;101436.66;5094967;28;20089;-43
2022/05/29 03:13:15;;;;;;;3.10;1.00;;;;;;;7.70;62.16;101451.53;5060453;28;20035;-44
2022/05/29 03:16:07;;;;;;;4.53;1.05;;;;;;;7.55;63.02;101445.84;5080065;28;20046;-42
2022/05/29 03:19:05;;;;;;;3.05;0.98;;;;;;;7.61;62.63;101444.41;5095168;28;20166;-43
2022/05/29 03:21:46;;;;;;;5.32;1.00;;;;;;;7.55;62.39;101444.00;5079876;28;20032;-42
2022/05/29 03:24:52;;;;;;;4.85;1.27;;;;;;;7.52;62.92;101441.66;5076490;28;20052;-45
2022/05/29 03:27:44;;;;;;;4.00;1.00;;;;;;;7.52;63.07;101438.09;5068527;28;20024;-42
2022/05/29 03:30:21;;;;;;;3.70;1.33;;;;;;;7.35;62.71;101424.59;5080533;28;20032;-42
2022/05/29 03:32:49;;;;;;;3.15;0.82;;;;;;;7.34;62.49;101425.56;5096477;28;20035;-42
2022/05/29 03:35:36;;;;;;;2.60;1.20;;;;;;;7.20;63.01;101398.50;5095604;28;20020;-43
2022/05/29 03:38:04;;;;;;;2.83;1.10;;;;;;;7.39;62.97;101430.44;5095904;28;20016;-42
2022/05/29 03:40:32;;;;;;;2.25;0.85;;;;;;;7.35;63.07;101423.72;5095483;28;20058;-42
2022/05/29 03:42:58;;;;;;;4.72;1.15;;;;;;;7.37;62.89;101427.09;5077724;28;20032;-42
2022/05/29 03:45:25;;;;;;;5.55;1.10;;;;;;;7.25;63.42;101406.91;5078011;28;20499;-42
2022/05/29 03:47:51;;;;;;;1.50;1.00;;;;;;;7.32;63.68;101422.19;5077697;28;20384;-45
2022/05/29 03:50:19;;;;;;;3.47;0.90;;;;;;;7.25;64.63;101413.09;5096032;28;20077;-45
2022/05/29 03:52:46;;;;;;;3.20;0.95;;;;;;;7.30;64.67;101420.66;5095959;28;20024;-43
2022/05/29 03:55:14;;;;;;;2.45;0.90;;;;;;;7.31;64.43;101425.00;5077298;28;20024;-42
2022/05/29 03:57:40;;;;;;;4.13;1.05;;;;;;;7.18;64.04;101403.97;5095289;28;20594;-44
2022/05/29 04:00:09;;;;;;;9.25;1.45;;;;;;;7.29;65.29;101427.00;5095371;28;20126;-42
2022/05/29 04:02:35;;;;;;;3.97;1.27;;;;;;;7.26;65.86;101422.81;5077106;28;20480;-42
2022/05/29 04:05:01;;;;;;;4.63;1.00;;;;;;;7.24;65.60;101413.22;5095122;28;20089;-42
2022/05/29 04:12:58;;;;;;;3.22;0.93;;;;;;;7.12;65.31;101391.22;5081982;28;20077;-42
2022/05/29 04:15:24;;;;;;;2.33;1.02;;;;;;;7.23;64.70;101419.59;5096686;28;20145;-42
2022/05/29 04:17:51;;;;;;;3.03;1.05;;;;;;;7.22;65.21;101409.88;5095095;28;20487;-43
2022/05/29 04:20:17;;;;;;;2.75;0.75;;;;;;;7.14;65.76;101400.75;5076988;28;20039;-43
2022/05/29 04:22:42;;;;;;;1.33;0.68;;;;;;;7.12;65.96;101405.41;5092249;28;20024;-42
2022/05/29 04:25:09;;;;;;;6.03;0.85;;;;;;;7.17;65.86;101413.84;5056369;28;20407;-42
2022/05/29 04:27:34;;;;;;;3.78;1.13;;;;;;;7.04;66.03;101386.63;5056082;28;20507;-42
2022/05/29 04:30:00;;;;;;;2.70;1.05;;;;;;;7.15;66.00;101399.78;5074295;28;20037;-42
2022/05/29 04:35:12;;;;;;;3.17;1.30;;;;;;;7.14;65.79;101392.75;5060005;28;20032;-42
2022/05/29 04:37:37;;;;;;;2.92;0.98;;;;;;;7.19;65.89;101395.00;5075090;28;20032;-42
2022/05/29 04:40:04;;;;;;;5.93;1.15;;;;;;;7.17;66.06;101389.78;5057256;28;20071;-43
2022/05/29 04:42:30;;;;;;;7.75;1.35;;;;;;;7.20;66.21;101383.28;5040591;28;20039;-44
2022/05/29 04:44:55;;;;;;;2.03;1.00;;;;;;;7.23;65.66;101385.69;5056813;28;20024;-42
2022/05/29 04:47:21;;;;;;;3.10;1.00;;;;;;;7.12;65.79;101367.19;5056337;28;20052;-42
2022/05/29 04:49:47;;;;;;;6.57;1.30;;;;;;;7.27;66.50;101383.56;5074235;28;20111;-44
2022/05/29 04:52:13;;;;;;;2.70;0.85;;;;;;;7.26;65.83;101384.53;5074035;28;20372;-42
2022/05/29 04:54:40;;;;;;;4.25;1.33;;;;;;;7.24;66.13;101382.00;5056381;28;20032;-42
2022/05/29 04:57:07;;;;;;;4.10;0.90;;;;;;;7.31;65.65;101382.25;5039673;28;20058;-43
2022/05/29 04:59:34;;;;;;;6.03;0.90;;;;;;;7.27;65.86;101359.50;5039658;28;20074;-43
2022/05/29 05:02:01;;;;;;;4.53;1.17;;;;;;;7.43;66.05;101372.19;5056365;28;20039;-42
2022/05/29 05:04:27;;;;;;;3.58;1.58;;;;;;;7.50;65.81;101374.13;5039562;28;20028;-43
2022/05/29 05:06:58;;;;;;;4.68;1.63;;;;;;;7.48;65.73;101370.75;5074259;28;20037;-43
2022/05/29 05:09:25;;;;;;;1.58;1.05;;;;;;;7.50;66.48;101374.13;5074235;28;20036;-42
2022/05/29 05:11:52;;;;;;;4.25;0.93;;;;;;;7.50;65.90;101368.78;5073914;28;20465;-42
2022/05/29 05:14:19;;;;;;;3.50;1.30;;;;;;;7.51;66.40;101370.47;5055928;28;20032;-45
2022/05/29 05:16:46;;;;;;;3.55;1.30;;;;;;;7.58;66.90;101373.38;5073856;28;20024;-43
2022/05/29 05:19:12;;;;;;;7.28;1.33;;;;;;;7.63;66.57;101379.09;5073798;28;20035;-42
2022/05/29 05:21:38;;;;;;;5.97;1.30;;;;;;;7.62;66.50;101380.09;5074578;28;20028;-45
2022/05/29 05:24:05;;;;;;;3.20;1.10;;;;;;;7.68;66.38;101381.31;5079439;28;20060;-44
2022/05/29 05:26:31;;;;;;;3.92;1.02;;;;;;;7.66;65.78;101378.78;5085368;28;20525;-43
2022/05/29 05:28:57;;;;;;;4.50;1.40;;;;;;;7.58;66.69;101370.69;5084841;28;20119;-45
2022/05/29 05:31:24;;;;;;;4.35;1.20;;;;;;;7.61;66.76;101393.59;5080168;28;20024;-44
2022/05/29 05:33:51;;;;;;;6.45;1.35;;;;;;;7.64;67.28;101390.66;5078644;28;20123;-44
2022/05/29 05:36:17;;;;;;;7.15;1.15;;;;;;;7.67;66.68;101387.66;5078942;28;20029;-44
2022/05/29 05:38:43;;;;;;;4.75;1.38;;;;;;;7.62;66.42;101380.09;5078406;28;20040;-42
2022/05/29 05:41:09;;;;;;;5.13;1.42;;;;;;;7.66;65.89;101377.97;5060425;28;20528;-42
2022/05/29 05:43:35;;;;;;;8.32;1.20;;;;;;;7.62;66.78;101369.41;5077609;28;20056;-42
2022/05/29 05:46:01;;;;;;;4.95;1.42;;;;;;;7.73;66.35;101387.06;5060282;28;20033;-43
2022/05/29 05:48:30;;;;;;;6.75;1.20;;;;;;;7.65;66.51;101369.13;5079883;28;20028;-42
2022/05/29 05:50:57;;;;;;;4.13;1.30;;;;;;;7.77;66.88;101383.09;5061446;28;20035;-42
2022/05/29 05:53:23;;;;;;;5.65;1.27;;;;;;;7.77;67.21;101380.41;5060894;28;20032;-42
2022/05/29 05:55:49;;;;;;;3.58;1.35;;;;;;;7.80;66.31;101373.91;5077616;28;20054;-42
2022/05/29 05:58:15;;;;;;;5.60;1.15;;;;;;;7.85;66.25;101372.44;5042862;28;20028;-42
2022/05/29 06:00:43;;;;;;;3.72;1.35;;;;;;;7.91;67.20;101368.31;5077496;28;20040;-42
2022/05/29 06:03:09;;;;;;;2.70;1.60;;;;;;;7.55;66.42;101302.34;5059360;28;20487;-43
2022/05/29 06:05:35;;;;;;;4.75;1.13;;;;;;;8.00;66.74;101372.75;5077260;28;20037;-43
2022/05/29 06:08:01;;;;;;;5.05;1.27;;;;;;;8.03;66.73;101377.78;5042478;28;20032;-42
2022/05/29 06:10:27;;;;;;;5.47;1.40;;;;;;;8.03;66.34;101368.94;5077457;28;20039;-43
2022/05/29 06:12:53;;;;;;;3.78;0.95;;;;;;;8.11;66.08;101379.69;5076735;28;20035;-43
2022/05/29 06:15:19;;;;;;;6.80;1.40;;;;;;;8.08;66.74;101359.44;5076763;28;20107;-43
2022/05/29 06:17:45;;;;;;;4.22;1.15;;;;;;;8.12;66.67;101368.84;5076893;28;20469;-41
2022/05/29 06:20:12;;;;;;;4.50;1.20;;;;;;;8.19;66.36;101368.22;5058570;28;20111;-41
2022/05/29 06:22:39;;;;;;;8.35;1.20;;;;;;;8.23;66.40;101375.78;5076400;28;20024;-41
2022/05/29 06:25:07;;;;;;;8.18;1.48;;;;;;;8.25;66.75;101363.09;5076802;28;20100;-41
2022/05/29 06:27:36;;;;;;;4.97;1.20;;;;;;;8.31;66.20;101359.78;5058729;28;20032;-45
2022/05/29 06:30:03;;;;;;;7.70;1.33;;;;;;;8.37;66.16;101363.66;5077145;28;20029;-43
2022/05/29 06:32:29;;;;;;;3.22;1.05;;;;;;;8.38;66.15;101353.81;5076897;28;20059;-43
2022/05/29 06:34:55;;;;;;;6.57;1.13;;;;;;;8.45;66.23;101360.22;5076297;28;20473;-41
2022/05/29 06:37:21;;;;;;;6.95;1.02;;;;;;;8.46;65.32;101353.88;5058853;28;20042;-42
2022/05/29 06:39:47;;;;;;;3.45;0.80;;;;;;;8.33;65.82;101331.03;5076918;28;20028;-42
2022/05/29 06:42:13;;;;;;;5.85;1.67;;;;;;;8.50;65.98;101347.22;5059289;28;20021;-41
2022/05/29 06:44:40;;;;;;;14.15;4.05;;;;;;;8.56;65.54;101349.25;5042917;28;20025;-42
2022/05/29 06:47:07;;;;;;;3.88;1.20;;;;;;;8.68;65.38;101353.34;5076511;28;20024;-41
2022/05/29 06:49:34;;;;;;;8.07;1.52;;;;;;;8.76;65.28;101351.72;5058634;28;20036;-41
2022/05/29 06:52:00;;;;;;;8.00;0.93;;;;;;;8.83;65.17;101352.75;5076719;28;20039;-44
2022/05/29 06:54:26;;;;;;;4.65;0.93;;;;;;;8.80;64.77;101337.00;5058584;28;20111;-41
2022/05/29 06:56:51;;;;;;;9.48;1.33;;;;;;;8.74;64.38;101318.91;5058678;28;20044;-43
2022/05/29 06:59:17;;;;;;;6.20;1.40;;;;;;;9.08;63.69;101351.00;5076875;28;20475;-41
2022/05/29 07:07:16;;;;;;;4.88;1.00;;;;;;;9.32;62.54;101323.44;5061513;28;20033;-42
2022/05/29 07:09:42;;;;;;;4.10;0.88;;;;;;;9.46;62.22;101332.69;5076438;28;20488;-42
2022/05/29 07:12:13;;;;;;;8.23;1.20;;;;;;;9.38;61.84;101327.31;5058317;28;20036;-41
2022/05/29 07:14:44;;;;;;;3.55;1.00;;;;;;;9.45;62.19;101345.28;5076390;28;20115;-43
2022/05/29 07:17:11;;;;;;;2.65;1.02;;;;;;;9.39;62.34;101324.47;5076136;28;20033;-45
2022/05/29 07:19:37;;;;;;;2.90;1.30;;;;;;;9.58;62.67;101336.72;5058684;28;20057;-44
2022/05/29 07:22:03;;;;;;;7.00;0.95;;;;;;;9.61;62.17;101331.03;5076810;28;20063;-42
2022/05/29 07:24:32;;;;;;;3.95;0.90;;;;;;;9.83;61.54;101344.81;5077367;28;20072;-42
2022/05/29 07:26:58;;;;;;;4.38;0.77;;;;;;;9.86;61.10;101348.00;5077326;28;20389;-43
2022/05/29 07:29:24;;;;;;;7.68;1.00;;;;;;;9.91;61.19;101341.28;5057786;28;20024;-42
2022/05/29 07:31:51;;;;;;;4.70;1.13;;;;;;;9.98;60.91;101328.88;5075750;28;20157;-41
2022/05/29 07:34:17;;;;;;;5.70;0.90;;;;;;;9.98;60.69;101316.28;5075378;28;20071;-41
2022/05/29 07:36:43;;;;;;;6.07;0.93;;;;;;;10.18;60.40;101324.84;5057728;28;20056;-44
2022/05/29 07:39:09;;;;;;;8.63;1.23;;;;;;;10.21;59.96;101337.06;5075391;28;20037;-43
2022/05/29 07:44:21;;;;;;;10.20;2.63;;;;;;;10.26;60.50;101324.81;5061109;28;20385;-42
2022/05/29 07:46:47;;;;;;;8.40;1.73;;;;;;;10.23;60.27;101319.81;5074878;28;20032;-41
2022/05/29 07:49:13;;;;;;;4.93;0.90;;;;;;;10.27;59.93;101314.94;5057386;28;20029;-42
2022/05/29 07:51:39;;;;;;;5.15;1.17;;;;;;;10.06;59.80;101267.13;5075355;28;20036;-41
2022/05/29 07:54:05;;;;;;;5.88;1.00;;;;;;;10.60;59.28;101326.44;5075213;28;20133;-41
2022/05/29 07:56:31;;;;;;;8.75;1.25;;;;;;;10.69;59.10;101323.75;5075530;28;20037;-42
2022/05/29 07:58:57;;;;;;;5.18;0.90;;;;;;;11.01;58.25;101318.25;5057845;28;20036;-42
2022/05/29 08:01:22;;;;;;;8.10;1.10;;;;;;;11.42;56.61;101323.38;5057296;28;20036;-42
2022/05/29 08:03:48;;;;;;;1.92;0.80;;;;;;;11.65;55.91;101314.47;5075049;28;20380;-42
2022/05/29 08:06:15;;;;;;;5.05;0.80;;;;;;;11.68;56.01;101306.06;5040992;28;20025;-43
2022/05/29 08:08:41;;;;;;;3.80;0.68;;;;;;;11.71;55.68;101313.75;5057097;28;20036;-42
2022/05/29 08:11:07;;;;;;;1.83;0.90;;;;;;;11.57;55.34;101303.75;5078678;28;20029;-42
2022/05/29 08:13:35;;;;;;;5.30;0.80;;;;;;;11.55;55.73;101313.88;5081069;28;20028;-44
2022/05/29 08:16:04;;;;;;;3.45;0.40;;;;;;;12.19;54.43;101300.91;5080055;28;20055;-43
2022/05/29 08:18:30;;;;;;;4.22;1.00;;;;;;;12.31;53.41;101313.91;5060136;28;20032;-43
2022/05/29 08:20:56;;;;;;;2.40;0.55;;;;;;;12.24;53.23;101302.19;5057785;28;20060;-43
2022/05/29 08:23:22;;;;;;;2.90;0.73;;;;;;;13.58;50.26;101300.19;5064465;28;20491;-43
2022/05/29 08:31:24;;;;;;;3.13;0.80;;;;;;;16.91;43.67;101272.38;5080111;28;20035;-43
2022/05/29 08:33:50;;;;;;;3.83;0.70;;;;;;;17.56;42.23;101262.16;5095016;28;20032;-42
2022/05/29 08:36:24;;;;;;;1.33;0.60;;;;;;;17.74;40.81;101266.84;5077223;28;20034;-42
2022/05/29 08:38:52;;;;;;;1.80;0.70;;;;;;;16.65;43.02;101285.81;5076585;28;20032;-43
2022/05/29 08:41:42;;;;;;;2.60;0.50;;;;;;;15.59;43.52;101264.25;5059581;28;20343;-45
2022/05/29 08:44:17;;;;;;;1.90;0.52;;;;;;;14.64;45.26;101265.03;5079697;28;20020;-43
2022/05/29 08:46:55;;;;;;;1.50;0.52;;;;;;;14.36;46.40;101273.16;5094494;28;20024;-42
2022/05/29 08:49:29;;;;;;;4.13;0.70;;;;;;;15.37;44.25;101266.28;5079461;28;20111;-50
2022/05/29 08:52:34;;;;;;;3.22;0.75;;;;;;;14.72;45.14;101277.53;5078613;28;20020;-41
2022/05/29 08:55:37;;;;;;;2.42;0.73;;;;;;;14.19;45.76;101271.78;5070119;28;20040;-42
2022/05/29 08:58:28;;;;;;;3.13;0.80;;;;;;;13.94;47.26;101283.03;5080476;28;20020;-43
2022/05/29 09:01:22;;;;;;;3.03;0.80;;;;;;;13.66;47.67;101272.22;5080209;28;20570;-43
2022/05/29 09:04:10;;;;;;;3.53;0.70;;;;;;;13.45;48.17;101267.69;5080477;28;20032;-40
2022/05/29 09:06:42;;;;;;;2.45;0.60;;;;;;;13.61;48.70;101271.97;5075911;28;20039;-41
2022/05/29 09:09:34;;;;;;;4.35;0.80;;;;;;;14.24;46.30;101248.53;5094110;28;20028;-42
2022/05/29 09:12:06;;;;;;;2.33;0.73;;;;;;;14.16;47.16;101261.41;5079772;28;20036;-41
2022/05/29 09:14:47;;;;;;;1.40;0.80;;;;;;;15.24;44.49;101257.09;5076708;28;20380;-42
2022/05/29 09:17:24;;;;;;;2.42;0.60;;;;;;;14.76;44.58;101259.88;5059324;28;20028;-41
2022/05/29 09:19:56;;;;;;;2.78;0.60;;;;;;;14.90;44.15;101258.88;5094168;28;20105;-43
2022/05/29 09:22:28;;;;;;;2.42;0.80;;;;;;;16.21;42.22;101243.16;5093965;28;20453;-47
2022/05/29 09:25:25;;;;;;;2.45;0.70;;;;;;;16.78;41.34;101240.69;5073680;28;20043;-43
2022/05/29 09:27:51;;;;;;;37.33;9.27;;;;;;;16.41;41.13;101226.84;5043313;28;20127;-42
2022/05/29 09:30:17;;;;;;;2.65;0.73;;;;;;;16.73;40.94;101232.38;5073730;28;20521;-42
2022/05/29 09:32:54;;;;;;;5.32;0.70;;;;;;;18.96;38.80;101238.16;5039053;28;20419;-42
2022/05/29 09:35:32;;;;;;;3.45;1.13;;;;;;;20.41;35.31;101235.16;5073727;28;20060;-42
2022/05/29 09:38:06;;;;;;;4.50;0.57;;;;;;;21.11;33.69;101216.91;5056023;28;20036;-42
2022/05/29 09:40:37;;;;;;;;;;;;;;;21.51;30.83;101219.56;5074239;28;20052;-43
2022/05/29 09:43:19;;;;;;;1.98;1.00;;;;;;;;;;5055273;28;20349;-42
2022/05/29 09:45:46;;;;;;;1.40;1.02;;;;;;;22.37;32.12;101221.09;5073627;28;20035;-42
2022/05/29 09:51:28;;;;;;;1.58;0.80;;;;;;;22.51;29.57;101224.28;5058602;28;20037;-43
2022/05/29 09:54:01;;;;;;;1.60;0.60;;;;;;;22.57;29.73;101226.00;5038418;28;20113;-43
2022/05/29 09:56:30;;;;;;;3.45;0.90;;;;;;;23.13;30.25;101229.38;5039243;28;20412;-42
2022/05/29 09:58:59;;;;;;;1.90;0.75;;;;;;;24.01;29.13;101219.13;5073329;28;20020;-43
2022/05/29 10:01:28;;;;;;;3.30;1.00;;;;;;;23.76;28.07;101212.38;5073739;28;20024;-42
2022/05/29 10:03:58;;;;;;;5.88;1.40;;;;;;;22.76;29.42;101221.84;5055933;28;20067;-42
2022/05/29 10:06:32;;;;;;;6.25;0.60;;;;;;;22.56;30.54;101197.78;5055149;28;20082;-42
2022/05/29 10:09:18;;;;;;;2.55;0.80;;;;;;;21.34;29.61;101211.31;5073422;28;20075;-42
2022/05/29 10:11:49;;;;;;;2.10;0.80;;;;;;;20.15;32.80;101214.69;5076631;28;20039;-43
2022/05/29 10:14:26;;;;;;;1.80;0.60;;;;;;;19.77;31.87;101227.75;5059014;28;20039;-48
2022/05/29 10:16:55;;;;;;;2.45;0.88;;;;;;;19.13;34.17;101224.75;5059376;28;20051;-42
2022/05/29 10:19:40;;;;;;;4.55;0.65;;;;;;;18.81;35.16;101224.16;5077343;28;20037;-43
2022/05/29 10:22:16;;;;;;;;;;;;;;;18.97;34.76;101220.78;5078028;28;20042;-42
2022/05/29 10:24:43;;;;;;;4.10;0.90;;;;;;;21.29;32.69;101200.28;5076373;28;20246;-44
2022/05/29 10:27:23;;;;;;;2.00;0.80;;;;;;;22.86;31.01;101209.34;5077120;28;20347;-43
2022/05/29 10:29:56;;;;;;;1.67;0.70;;;;;;;23.82;29.63;101185.81;5077365;28;20111;-44
2022/05/29 10:32:26;;;;;;;1.90;0.75;;;;;;;24.37;27.80;101187.22;5076792;28;20051;-44
2022/05/29 10:35:09;;;;;;;2.15;0.77;;;;;;;24.48;26.75;101183.41;5076992;28;20021;-48
2022/05/29 10:37:39;;;;;;;2.10;0.60;;;;;;;23.61;27.33;101187.59;5059843;28;20078;-43
2022/05/29 10:40:28;;;;;;;3.00;0.75;;;;;;;25.25;25.47;101182.78;5076950;28;20024;-44
2022/05/29 10:42:59;;;;;;;2.30;0.57;;;;;;;24.64;27.00;101176.06;5058923;28;20050;-44
2022/05/29 10:45:32;;;;;;;2.35;0.75;;;;;;;24.18;27.83;101169.53;5058499;28;20035;-44
2022/05/29 10:48:16;;;;;;;1.65;0.50;;;;;;;22.80;28.02;101173.69;5076753;28;20040;-43
2022/05/29 10:51:04;;;;;;;2.78;0.70;;;;;;;21.86;28.64;101182.91;5058811;28;20032;-45
2022/05/29 10:54:09;;;;;;;1.48;0.60;;;;;;;21.13;29.63;101179.25;5076967;28;20033;-43
2022/05/29 10:56:44;;;;;;;;;;;;;;;23.88;26.91;101179.28;5033954;28;20048;-45
2022/05/29 10:59:41;;;;;;;2.10;0.80;;;;;;;25.53;25.80;101172.31;5076494;28;20007;-43
2022/05/29 11:06:09;;;;;;;0.88;0.40;;;;;;;25.20;25.92;101163.50;5052835;28;20112;-44
2022/05/29 11:08:56;;;;;;;1.30;0.45;;;;;;;23.39;27.22;101170.13;5033435;28;20138;-44
2022/05/29 11:11:46;;;;;;;1.25;0.70;;;;;;;21.80;28.65;101168.34;5076580;28;20037;-46
2022/05/29 11:14:51;;;;;;;1.10;0.65;;;;;;;21.26;29.96;101171.53;5075926;28;20032;-44
2022/05/29 11:17:46;;;;;;;2.53;0.70;;;;;;;20.24;31.59;101181.34;5061823;28;20040;-46
2022/05/29 11:20:28;;;;;;;1.70;0.60;;;;;;;19.90;31.69;101161.25;5062854;28;20467;-43
2022/05/29 11:23:22;;;;;;;1.20;0.60;;;;;;;19.78;31.52;101172.19;5075805;28;20416;-43
2022/05/29 11:26:15;;;;;;;1.08;0.50;;;;;;;19.82;32.33;101169.81;5045261;28;20036;-41
2022/05/29 11:29:14;;;;;;;3.10;0.60;;;;;;;20.50;31.63;101170.94;5062807;28;20043;-42
2022/05/29 11:32:19;;;;;;;3.55;0.70;;;;;;;20.35;32.02;101168.75;5029935;28;20085;-43
2022/05/29 11:35:05;;;;;;;;;;;;;;;19.60;32.19;101164.09;5034562;28;20028;-43
2022/05/29 11:37:50;;;;;;;;;;;;;;;19.07;34.03;101163.88;5062082;28;19908;-42
2022/05/29 11:40:22;;;;;;;3.58;0.50;;;;;;;18.70;34.58;101152.25;5062642;28;19908;-43
2022/05/29 11:42:57;;;;;;;2.15;0.60;;;;;;;18.75;34.63;101168.72;5041695;28;20063;-42
2022/05/29 11:51:07;;;;;;;2.58;0.63;;;;;;;18.72;34.92;101152.84;5075849;28;20037;-43
2022/05/29 11:51:20;;;;;;;2.00;0.60;;;;;;;18.99;34.35;101150.59;5061625;28;20029;-44
2022/05/29 11:54:12;;;;;;;2.25;0.68;;;;;;;21.39;31.03;101147.72;5075755;28;20048;-43
2022/05/29 11:56:45;;;;;;;1.15;0.80;;;;;;;23.45;28.43;101134.53;5060903;28;20028;-43
2022/05/29 11:59:21;;;;;;;2.70;0.60;;;;;;;24.38;27.95;101130.38;5075650;28;20032;-42
2022/05/29 12:01:55;;;;;;;2.80;0.70;;;;;;;22.98;28.52;101128.66;5075283;28;20039;-43
2022/05/29 12:04:31;;;;;;;1.25;0.60;;;;;;;22.00;30.21;101136.88;5075090;28;20020;-44
2022/05/29 12:07:09;;;;;;;1.88;0.90;;;;;;;20.98;30.86;101133.38;5074749;28;20043;-42
2022/05/29 12:09:50;;;;;;;1.05;0.57;;;;;;;20.00;32.91;101139.69;5075148;28;20033;-42
2022/05/29 12:12:24;;;;;;;3.40;0.85;;;;;;;19.02;34.99;101132.97;5075112;28;20032;-43
2022/05/29 12:14:58;;;;;;;1.33;1.08;;;;;;;19.15;34.89;101141.78;5074981;28;20488;-41
2022/05/29 12:17:37;;;;;;;3.15;2.17;;;;;;;19.41;34.33;101130.66;5057278;28;20039;-44
2022/05/29 12:20:14;;;;;;;2.28;0.90;;;;;;;21.58;33.52;101119.09;5074756;28;20462;-43
2022/05/29 12:22:48;;;;;;;2.00;0.70;;;;;;;22.19;30.20;101120.97;5074301;28;20140;-42
2022/05/29 12:25:41;;;;;;;2.10;1.00;;;;;;;22.44;28.42;101111.44;5075149;28;20094;-43
2022/05/29 12:28:13;;;;;;;1.95;0.60;;;;;;;23.21;28.40;101096.53;5059780;28;20055;-42
2022/05/29 12:30:43;;;;;;;2.35;0.50;;;;;;;23.13;28.53;101091.56;5074867;28;20032;-43
2022/05/29 12:33:15;;;;;;;1.25;0.43;;;;;;;24.44;28.26;101102.66;5074422;28;20412;-42
2022/05/29 12:36:09;;;;;;;1.60;0.57;;;;;;;25.55;26.35;101098.59;5076221;28;20035;-43
2022/05/29 12:39:02;;;;;;;6.40;2.42;;;;;;;23.33;27.10;101096.38;5074991;28;20025;-43